createdAt,value
2019-04-04T00:01:19.787Z,12.37
2019-04-04T00:03:54.847Z,11.77
2019-04-04T00:06:29.868Z,12.53
2019-04-04T00:09:09.694Z,11.53
2019-04-04T00:11:44.741Z,12.13
2019-04-04T00:14:19.839Z,12.60
2019-04-04T00:16:54.901Z,11.27
2019-04-04T00:19:30.629Z,12.73
2019-04-04T00:22:05.829Z,11.53
2019-04-04T00:24:40.858Z,12.23
2019-04-04T00:27:15.997Z,11.73
2019-04-04T00:29:51.019Z,10.77
2019-04-04T00:32:26.044Z,11.37
2019-04-04T00:35:01.354Z,12.10
2019-04-04T00:37:36.660Z,11.77
2019-04-04T00:40:12.747Z,12.73
2019-04-04T00:42:48.370Z,11.43
2019-04-04T00:45:23.738Z,12.40
2019-04-04T00:47:58.769Z,12.10
2019-04-04T00:50:34.835Z,12.23
2019-04-04T00:53:11.792Z,12.97
2019-04-04T00:55:47.561Z,13.73
2019-04-04T00:58:22.998Z,12.80
2019-04-04T01:00:58.315Z,13.13
2019-04-04T01:03:33.689Z,14.27
2019-04-04T01:06:08.745Z,12.67
2019-04-04T01:08:44.077Z,15.00
2019-04-04T01:11:20.431Z,13.00
2019-04-04T01:13:57.842Z,13.03
2019-04-04T01:16:33.711Z,12.50
2019-04-04T01:19:10.467Z,12.97
2019-04-04T01:21:45.969Z,12.17
2019-04-04T01:24:21.012Z,11.80
2019-04-04T01:26:56.048Z,13.23
2019-04-04T01:29:31.464Z,13.07
2019-04-04T01:32:06.557Z,12.63
2019-04-04T01:34:41.893Z,12.87
2019-04-04T01:37:17.198Z,13.60
2019-04-04T01:39:52.239Z,13.10
2019-04-04T01:42:27.641Z,13.37
2019-04-04T01:45:02.881Z,12.70
2019-04-04T01:47:38.404Z,12.53
2019-04-04T01:50:14.715Z,13.17
2019-04-04T01:52:50.316Z,14.87
2019-04-04T01:55:25.802Z,13.63
2019-04-04T01:58:01.836Z,12.47
2019-04-04T02:00:37.789Z,11.77
2019-04-04T02:03:12.823Z,11.63
2019-04-04T02:05:48.099Z,13.07
2019-04-04T02:08:23.402Z,13.20
2019-04-04T02:10:58.450Z,12.73
2019-04-04T02:13:33.553Z,12.73
2019-04-04T02:16:08.596Z,13.93
2019-04-04T02:18:43.627Z,13.73
2019-04-04T02:21:18.922Z,13.17
2019-04-04T02:23:54.054Z,14.07
2019-04-04T02:26:30.268Z,12.87
2019-04-04T02:29:05.317Z,14.43
2019-04-04T02:31:43.031Z,15.23
2019-04-04T02:34:18.874Z,11.67
2019-04-04T02:36:55.108Z,13.63
2019-04-04T02:39:30.146Z,13.33
2019-04-04T02:42:06.066Z,13.60
2019-04-04T02:44:41.212Z,13.23
2019-04-04T02:47:17.333Z,13.70
2019-04-04T02:49:53.607Z,14.30
2019-04-04T02:52:28.776Z,13.70
2019-04-04T02:55:04.316Z,13.27
2019-04-04T02:57:42.213Z,14.33
2019-04-04T03:00:16.743Z,14.13
2019-04-04T03:02:51.847Z,12.90
2019-04-04T03:05:26.892Z,13.27
2019-04-04T03:08:04.137Z,13.03
2019-04-04T03:10:41.108Z,13.90
2019-04-04T03:13:17.023Z,15.90
2019-04-04T03:15:52.300Z,13.90
2019-04-04T03:18:27.700Z,12.73
2019-04-04T03:21:03.058Z,13.53
2019-04-04T03:23:38.404Z,12.67
2019-04-04T03:26:13.494Z,13.73
2019-04-04T03:28:48.606Z,12.10
2019-04-04T03:31:23.623Z,14.33
2019-04-04T03:34:08.724Z,13.53
2019-04-04T03:36:36.747Z,14.07
2019-04-04T03:39:12.786Z,13.07
2019-04-04T03:41:48.753Z,12.63
2019-04-04T03:44:24.031Z,12.83
2019-04-04T03:46:59.076Z,15.17
2019-04-04T03:49:34.103Z,13.60
2019-04-04T03:52:11.252Z,13.27
2019-04-04T03:54:47.063Z,13.70
2019-04-04T03:57:22.354Z,13.30
2019-04-04T03:59:57.385Z,13.40
2019-04-04T04:02:32.542Z,13.80
2019-04-04T04:05:26.501Z,12.87
2019-04-04T04:08:01.584Z,13.60
2019-04-04T04:10:36.654Z,14.80
2019-04-04T04:13:16.086Z,13.00
2019-04-04T04:15:48.910Z,14.03
2019-04-04T04:18:23.925Z,13.73
2019-04-04T04:21:00.858Z,13.67
2019-04-04T04:23:36.144Z,12.97
2019-04-04T04:26:11.178Z,13.77
2019-04-04T04:28:46.223Z,12.77
2019-04-04T04:31:21.232Z,13.20
2019-04-04T04:34:00.395Z,13.77
2019-04-04T04:36:33.964Z,13.43
2019-04-04T04:39:10.248Z,14.73
2019-04-04T04:41:45.272Z,13.90
2019-04-04T04:44:21.789Z,13.17
2019-04-04T04:46:57.099Z,13.93
2019-04-04T04:49:35.208Z,13.30
2019-04-04T04:52:08.870Z,12.93
2019-04-04T04:54:43.921Z,14.50
2019-04-04T04:57:29.331Z,12.20
2019-04-04T04:59:56.054Z,12.77
2019-04-04T05:02:32.049Z,13.37
2019-04-04T05:05:07.532Z,13.17
2019-04-04T05:07:43.500Z,13.93
2019-04-04T05:10:18.526Z,13.37
2019-04-04T05:12:53.891Z,11.20
2019-04-04T05:15:30.406Z,12.83
2019-04-04T05:18:06.456Z,12.77
2019-04-04T05:20:42.487Z,14.13
2019-04-04T05:23:17.559Z,12.97
2019-04-04T05:25:54.246Z,13.07
2019-04-04T05:28:29.399Z,13.20
2019-04-04T05:31:05.806Z,14.17
2019-04-04T05:33:40.882Z,12.87
2019-04-04T05:36:16.194Z,13.57
2019-04-04T05:38:52.443Z,12.43
2019-04-04T05:41:28.047Z,13.43
2019-04-04T05:44:04.569Z,13.53
2019-04-04T05:46:39.613Z,13.73
2019-04-04T05:49:15.650Z,14.10
2019-04-04T05:51:52.868Z,13.53
2019-04-04T05:54:29.352Z,13.43
2019-04-04T05:57:05.396Z,16.30
2019-04-04T05:59:42.311Z,12.77
2019-04-04T06:02:17.262Z,13.93
2019-04-04T06:04:55.147Z,13.60
2019-04-04T06:07:29.347Z,13.97
2019-04-04T06:10:06.827Z,14.53
2019-04-04T06:12:43.164Z,12.50
2019-04-04T06:15:19.282Z,13.60
2019-04-04T06:17:55.020Z,14.13
2019-04-04T06:20:30.535Z,12.93
2019-04-04T06:23:05.644Z,13.50
2019-04-04T06:25:41.015Z,15.40
2019-04-04T06:28:17.049Z,12.63
2019-04-04T06:30:54.177Z,14.20
2019-04-04T06:33:29.649Z,14.20
2019-04-04T06:36:04.683Z,12.53
2019-04-04T06:38:40.091Z,14.50
2019-04-04T06:41:15.847Z,13.90
2019-04-04T06:43:51.269Z,14.63
2019-04-04T06:46:26.641Z,15.00
2019-04-04T06:49:03.849Z,12.97
2019-04-04T06:51:39.376Z,13.53
2019-04-04T06:54:14.893Z,11.17
2019-04-04T06:56:50.031Z,11.83
2019-04-04T06:59:25.509Z,11.77
2019-04-04T07:02:04.994Z,12.33
2019-04-04T07:04:38.903Z,10.83
2019-04-04T07:07:14.030Z,10.60
2019-04-04T07:09:50.276Z,11.37
2019-04-04T07:12:28.405Z,11.40
2019-04-04T07:15:04.908Z,11.67
2019-04-04T07:17:41.187Z,11.43
2019-04-04T07:20:17.143Z,11.43
2019-04-04T07:22:55.655Z,11.73
2019-04-04T07:25:29.879Z,11.43
2019-04-04T07:28:10.427Z,10.00
2019-04-04T07:30:47.140Z,11.20
2019-04-04T07:33:22.272Z,10.70
2019-04-04T07:35:57.779Z,10.73
2019-04-04T07:38:35.125Z,11.17
2019-04-04T07:41:14.619Z,11.93
2019-04-04T07:43:53.527Z,11.20
2019-04-04T07:46:34.973Z,10.13
2019-04-04T07:49:10.582Z,10.60
2019-04-04T07:51:48.746Z,13.27
2019-04-04T07:54:31.870Z,11.28
2019-04-04T07:57:07.744Z,10.60
2019-04-04T07:59:42.803Z,9.90
2019-04-04T08:02:28.404Z,12.17
2019-04-04T08:05:06.697Z,10.70
2019-04-04T08:07:45.112Z,10.30
2019-04-04T08:10:21.194Z,10.90
2019-04-04T08:12:58.632Z,10.80
2019-04-04T08:15:37.357Z,10.60
2019-04-04T08:18:25.340Z,10.40
2019-04-04T08:21:05.918Z,10.07
2019-04-04T08:23:42.489Z,10.07
2019-04-04T08:26:18.421Z,10.03
2019-04-04T08:28:59.684Z,11.03
2019-04-04T08:31:36.982Z,10.60
2019-04-04T08:34:12.052Z,10.57
2019-04-04T08:36:48.060Z,9.97
2019-04-04T08:39:26.512Z,10.20
2019-04-04T08:42:04.463Z,10.37
2019-04-04T08:44:43.750Z,10.60
2019-04-04T08:47:23.675Z,11.50
2019-04-04T08:49:59.937Z,11.67
2019-04-04T08:52:42.423Z,11.33
2019-04-04T08:55:17.462Z,10.70
2019-04-04T08:58:07.574Z,10.55
2019-04-04T09:00:43.795Z,10.80
2019-04-04T09:03:20.817Z,9.80
2019-04-04T09:05:55.960Z,10.28
2019-04-04T09:08:31.412Z,10.00
2019-04-04T09:11:09.066Z,9.90
2019-04-04T09:13:50.141Z,9.67
2019-04-04T09:16:26.157Z,10.48
2019-04-04T09:19:05.385Z,10.00
2019-04-04T09:21:44.775Z,9.00
2019-04-04T09:24:33.561Z,9.93
2019-04-04T09:27:09.593Z,9.78
2019-04-04T09:29:51.313Z,8.90
2019-04-04T09:32:26.662Z,10.00
2019-04-04T09:35:04.414Z,10.75
2019-04-04T09:37:39.487Z,8.37
2019-04-04T09:40:16.374Z,9.20
2019-04-04T09:42:53.466Z,8.73
2019-04-04T09:45:29.421Z,8.95
2019-04-04T09:48:22.154Z,7.67
2019-04-04T09:50:57.496Z,8.70
2019-04-04T09:53:34.793Z,8.45
2019-04-04T09:56:16.514Z,8.45
2019-04-04T09:58:55.096Z,8.53
2019-04-04T10:01:35.659Z,8.73
2019-04-04T10:04:22.355Z,8.13
2019-04-04T10:07:02.417Z,8.95
2019-04-04T10:09:37.483Z,8.10
2019-04-04T10:12:19.680Z,7.73
2019-04-04T10:15:06.865Z,7.62
2019-04-04T10:17:49.108Z,8.28
2019-04-04T10:20:38.257Z,7.80
2019-04-04T10:23:14.299Z,7.80
2019-04-04T10:25:56.824Z,9.03
2019-04-04T10:28:33.219Z,10.20
2019-04-04T10:31:15.505Z,7.25
2019-04-04T10:33:55.234Z,7.37
2019-04-04T10:36:30.594Z,9.83
2019-04-04T10:39:13.402Z,8.40
2019-04-04T10:41:53.766Z,9.23
2019-04-04T10:44:32.209Z,8.27
2019-04-04T10:53:02.435Z,8.78
2019-04-04T10:55:42.954Z,8.13
2019-04-04T10:58:23.620Z,8.25
2019-04-04T11:00:58.711Z,7.58
2019-04-04T11:03:40.193Z,7.90
2019-04-04T11:06:22.159Z,7.78
2019-04-04T11:09:02.146Z,7.58
2019-04-04T11:11:49.427Z,7.85
2019-04-04T11:14:30.853Z,7.45
2019-04-04T11:17:08.537Z,7.67
2019-04-04T11:19:58.749Z,7.17
2019-04-04T11:22:34.199Z,7.92
2019-04-04T11:25:29.306Z,8.58
2019-04-04T11:28:10.171Z,7.65
2019-04-04T11:30:59.625Z,8.10
2019-04-04T11:33:50.906Z,7.90
2019-04-04T11:36:27.966Z,8.23
2019-04-04T11:42:16.601Z,7.25
2019-04-04T11:45:09.565Z,6.33
2019-04-04T11:47:57.715Z,6.85
2019-04-04T11:50:33.856Z,7.12
2019-04-04T11:56:20.825Z,7.53
2019-04-04T11:58:56.862Z,6.70
2019-04-04T12:01:38.041Z,6.50
2019-04-04T12:04:18.702Z,6.90
2019-04-04T12:10:17.414Z,6.33
2019-04-04T12:13:22.005Z,7.17
2019-04-04T12:19:58.889Z,7.08
2019-04-04T12:26:30.051Z,5.85
2019-04-04T12:29:15.593Z,6.30
2019-04-04T12:37:58.527Z,6.50
2019-04-04T12:40:55.443Z,7.10
2019-04-04T12:43:33.363Z,5.87
2019-04-04T12:46:08.404Z,6.20
2019-04-04T12:48:43.538Z,6.17
2019-04-04T12:51:23.130Z,6.33
2019-04-04T12:54:11.297Z,6.97
2019-04-04T12:56:55.853Z,6.55
2019-04-04T12:59:49.705Z,6.70
2019-04-04T13:02:28.103Z,6.83
2019-04-04T13:05:04.478Z,7.45
2019-04-04T13:07:46.410Z,7.67
2019-04-04T13:10:35.557Z,6.45
2019-04-04T13:13:23.742Z,6.00
2019-04-04T13:16:10.223Z,7.00
2019-04-04T13:18:59.796Z,5.78
2019-04-04T13:21:55.835Z,6.40
2019-04-04T13:24:42.086Z,6.47
2019-04-04T13:34:20.833Z,7.85
2019-04-04T13:37:01.066Z,6.47
2019-04-04T13:39:48.610Z,6.25
2019-04-04T13:42:35.686Z,5.67
2019-04-04T13:45:12.775Z,6.42
2019-04-04T13:47:50.150Z,6.12
2019-04-04T13:50:30.171Z,5.67
2019-04-04T13:53:16.862Z,6.15
2019-04-04T13:55:52.866Z,7.12
2019-04-04T13:58:28.933Z,6.47
2019-04-04T14:01:04.963Z,6.65
2019-04-04T14:03:46.693Z,6.85
2019-04-04T14:06:33.460Z,7.90
2019-04-04T14:09:21.399Z,7.15
2019-04-04T14:12:02.366Z,6.37
2019-04-04T14:14:39.565Z,6.67
2019-04-04T14:17:22.394Z,7.33
2019-04-04T14:20:11.218Z,7.22
2019-04-04T14:22:52.683Z,7.05
2019-04-04T14:25:37.387Z,6.53
2019-04-04T14:28:22.799Z,7.33
2019-04-04T14:30:58.776Z,6.60
2019-04-04T14:33:45.015Z,6.30
2019-04-04T14:36:21.319Z,7.08
2019-04-04T14:38:56.385Z,6.28
2019-04-04T14:41:37.809Z,7.92
2019-04-04T14:44:15.678Z,6.90
2019-04-04T14:46:51.726Z,6.37
2019-04-04T14:49:37.691Z,6.45
2019-04-04T14:52:24.305Z,8.08
2019-04-04T14:55:12.792Z,6.12
2019-04-04T14:57:56.306Z,5.97
2019-04-04T15:00:37.385Z,7.15
2019-04-04T15:03:15.770Z,6.17
2019-04-04T15:06:20.099Z,5.93
2019-04-04T15:09:01.914Z,6.20
2019-04-04T15:11:38.672Z,5.17
2019-04-04T15:14:18.933Z,6.43
2019-04-04T15:16:54.392Z,6.67
2019-04-04T15:19:34.430Z,5.20
2019-04-04T15:22:26.057Z,5.13
2019-04-04T15:25:02.409Z,6.70
2019-04-04T15:27:51.257Z,6.50
2019-04-04T15:30:37.703Z,4.90
2019-04-04T15:33:27.643Z,6.10
2019-04-04T15:36:12.617Z,5.90
2019-04-04T15:38:59.757Z,7.87
2019-04-04T15:41:45.460Z,6.40
2019-04-04T15:44:33.573Z,5.70
2019-04-04T15:47:09.639Z,5.75
2019-04-04T15:49:52.878Z,5.12
2019-04-04T15:52:28.312Z,5.92
2019-04-04T15:55:20.460Z,5.90
2019-04-04T15:57:55.619Z,6.10
2019-04-04T16:00:48.428Z,5.37
2019-04-04T16:03:35.842Z,5.78
2019-04-04T16:06:19.251Z,6.30
2019-04-04T16:09:17.452Z,7.03
2019-04-04T16:12:10.271Z,6.17
2019-04-04T16:14:45.338Z,5.43
2019-04-04T16:17:27.661Z,5.60
2019-04-04T16:20:06.013Z,6.27
2019-04-04T16:22:46.075Z,5.70
2019-04-04T16:25:34.844Z,5.37
2019-04-04T16:28:33.694Z,5.70
2019-04-04T16:31:17.666Z,5.57
2019-04-04T16:37:01.664Z,6.57
2019-04-04T16:39:43.021Z,5.75
2019-04-04T16:42:34.126Z,5.67
2019-04-04T16:45:10.730Z,17.13
2019-04-04T16:47:46.765Z,8.10
2019-04-04T16:50:22.003Z,6.47
2019-04-04T16:52:57.278Z,7.17
2019-04-04T16:55:37.629Z,11.53
2019-04-04T16:58:14.872Z,6.17
2019-04-04T17:00:50.811Z,5.67
2019-04-04T17:03:27.089Z,7.23
2019-04-04T17:06:02.118Z,7.07
2019-04-04T17:08:38.375Z,37.67
2019-04-04T17:11:14.419Z,7.30
2019-04-04T17:13:50.712Z,15.53
2019-04-04T17:16:26.040Z,6.77
2019-04-04T17:19:13.116Z,7.93
2019-04-04T17:21:49.331Z,13.87
2019-04-04T17:24:25.677Z,8.57
2019-04-04T17:27:00.725Z,28.00
2019-04-04T17:29:41.121Z,22.60
2019-04-04T17:32:23.679Z,8.90
2019-04-04T17:35:00.310Z,13.13
2019-04-04T17:37:39.116Z,42.23
2019-04-04T17:40:17.372Z,22.73
2019-04-04T17:42:53.438Z,12.67
2019-04-04T17:45:36.884Z,9.60
2019-04-04T17:48:18.899Z,9.07
2019-04-04T17:50:55.246Z,11.47
2019-04-04T17:53:30.891Z,15.67
2019-04-04T17:56:09.760Z,48.23
2019-04-04T17:58:46.885Z,62.03
2019-04-04T18:01:22.918Z,84.17
2019-04-04T18:03:58.081Z,121.47
2019-04-04T18:06:33.586Z,69.57
2019-04-04T18:09:11.008Z,225.33
2019-04-04T18:11:46.626Z,68.97
2019-04-04T18:14:22.771Z,76.80
2019-04-04T18:16:58.136Z,20.20
2019-04-04T18:19:33.257Z,16.67
2019-04-04T18:22:10.391Z,11.60
2019-04-04T18:24:46.291Z,14.80
2019-04-04T18:27:21.477Z,15.00
2019-04-04T18:29:56.515Z,19.57
2019-04-04T18:32:31.558Z,20.93
2019-04-04T18:35:09.366Z,28.57
2019-04-04T18:37:46.083Z,36.70
2019-04-04T18:40:21.614Z,30.67
2019-04-04T18:42:56.675Z,30.77
2019-04-04T18:45:31.839Z,18.30
2019-04-04T18:48:07.584Z,14.00
2019-04-04T18:50:42.707Z,19.73
2019-04-04T18:53:18.861Z,10.70
2019-04-04T18:55:54.904Z,9.07
2019-04-04T18:58:31.261Z,15.77
2019-04-04T19:01:07.726Z,18.27
2019-04-04T19:03:42.893Z,26.63
2019-04-04T19:06:18.291Z,36.77
2019-04-04T19:08:53.331Z,19.67
2019-04-04T19:11:28.713Z,20.70
2019-04-04T19:14:03.750Z,9.17
2019-04-04T19:16:39.390Z,9.60
2019-04-04T19:19:14.518Z,12.33
2019-04-04T19:21:49.889Z,29.97
2019-04-04T19:24:24.939Z,33.23
2019-04-04T19:26:59.989Z,25.67
2019-04-04T19:29:35.296Z,13.07
2019-04-04T19:32:11.511Z,15.60
2019-04-04T19:34:46.980Z,15.90
2019-04-04T19:37:23.667Z,23.63
2019-04-04T19:39:58.855Z,13.67
2019-04-04T19:42:33.970Z,11.50
2019-04-04T19:45:09.735Z,12.73
2019-04-04T19:47:44.856Z,10.30
2019-04-04T19:50:22.694Z,11.13
2019-04-04T19:52:58.714Z,8.50
2019-04-04T19:55:35.050Z,8.93
2019-04-04T19:58:11.099Z,8.73
2019-04-04T20:00:46.550Z,7.50
2019-04-04T20:03:22.475Z,9.50
2019-04-04T20:05:57.523Z,9.60
2019-04-04T20:08:32.913Z,9.50
2019-04-04T20:11:08.215Z,8.07
2019-04-04T20:13:43.284Z,9.13
2019-04-04T20:16:18.593Z,10.33
2019-04-04T20:18:53.627Z,9.37
2019-04-04T20:21:28.695Z,15.23
2019-04-04T20:24:04.135Z,9.17
2019-04-04T20:26:39.481Z,8.60
2019-04-04T20:29:14.771Z,10.57
2019-04-04T20:31:49.795Z,9.53
2019-04-04T20:34:24.860Z,8.77
2019-04-04T20:36:59.988Z,10.17
2019-04-04T20:39:35.013Z,8.97
2019-04-04T20:42:10.085Z,9.37
2019-04-04T20:44:46.139Z,8.87
2019-04-04T20:47:23.398Z,8.30
2019-04-04T20:49:58.445Z,8.07
2019-04-04T20:52:33.722Z,8.37
2019-04-04T20:55:09.814Z,8.37
2019-04-04T20:57:45.104Z,9.13
2019-04-04T21:00:22.305Z,8.40
2019-04-04T21:02:57.675Z,10.30
2019-04-04T21:05:33.087Z,9.43
2019-04-04T21:08:11.382Z,9.43
2019-04-04T21:10:46.957Z,10.00
2019-04-04T21:13:23.981Z,14.63
2019-04-04T21:16:00.994Z,8.60
2019-04-04T21:18:36.278Z,8.77
2019-04-04T21:21:12.281Z,8.50
2019-04-04T21:23:47.641Z,9.27
2019-04-04T21:26:23.002Z,8.93
2019-04-04T21:28:58.042Z,9.93
2019-04-04T21:31:34.131Z,8.73
2019-04-04T21:34:09.182Z,9.03
2019-04-04T21:36:47.061Z,8.77
2019-04-04T21:39:23.696Z,10.87
2019-04-04T21:41:59.965Z,9.57
2019-04-04T21:44:35.015Z,9.07
2019-04-04T21:47:10.294Z,13.13
2019-04-04T21:49:45.371Z,10.90
2019-04-04T21:52:20.401Z,11.80
2019-04-04T21:54:55.447Z,10.27
2019-04-04T21:57:30.487Z,11.23
2019-04-04T22:00:07.923Z,10.27
2019-04-04T22:02:44.574Z,10.30
2019-04-04T22:05:19.858Z,9.67
2019-04-04T22:07:54.899Z,10.77
2019-04-04T22:10:31.854Z,8.87
2019-04-04T22:13:09.128Z,10.00
2019-04-04T22:15:45.589Z,10.53
2019-04-04T22:18:20.708Z,10.13
2019-04-04T22:20:55.990Z,9.97
2019-04-04T22:23:31.036Z,9.90
2019-04-04T22:26:06.061Z,9.40
2019-04-04T22:28:41.738Z,10.27
2019-04-04T22:31:16.665Z,9.67
2019-04-04T22:33:51.680Z,11.17
2019-04-04T22:36:26.989Z,9.67
2019-04-04T22:39:02.258Z,9.20
2019-04-04T22:41:38.671Z,10.33
2019-04-04T22:44:13.708Z,10.07
2019-04-04T22:46:48.993Z,9.77
2019-04-04T22:49:24.030Z,8.90
2019-04-04T22:51:59.390Z,9.97
2019-04-04T22:54:34.421Z,9.83
2019-04-04T22:57:09.442Z,9.90
2019-04-04T22:59:44.745Z,10.23
2019-04-04T23:02:19.770Z,9.33
2019-04-04T23:04:54.802Z,9.67
2019-04-04T23:07:31.770Z,10.00
2019-04-04T23:10:08.098Z,9.47
2019-04-04T23:12:44.030Z,9.33
2019-04-04T23:15:19.976Z,8.97
2019-04-04T23:17:55.625Z,8.90
2019-04-04T23:20:31.772Z,9.30
2019-04-04T23:23:07.702Z,9.97
2019-04-04T23:25:42.984Z,9.33
2019-04-04T23:28:20.091Z,9.50
2019-04-04T23:30:55.102Z,9.60
2019-04-04T23:33:30.159Z,10.07
2019-04-04T23:36:05.190Z,9.33
2019-04-04T23:38:40.234Z,9.53
2019-04-04T23:41:15.517Z,9.87
2019-04-04T23:43:50.559Z,9.43
2019-04-04T23:46:28.172Z,10.53
2019-04-04T23:49:04.209Z,11.07
2019-04-04T23:51:39.569Z,10.53
2019-04-04T23:54:14.864Z,11.53
2019-04-04T23:56:50.815Z,12.40
2019-04-04T23:59:25.852Z,10.83
